sensor_id;sensor_type;location;lat;lon;timestamp;pressure;altitude;pressure_sealevel;temperature;humidity
68793;BME280;55778;54.346;10.210;2023-05-25T00:00:32;101995.97;;;11.13;100.00
68793;BME280;55778;54.346;10.210;2023-05-25T00:02:57;101994.75;;;11.17;100.00
68793;BME280;55778;54.346;10.210;2023-05-25T00:05:23;101996.22;;;11.10;100.00
68793;BME280;55778;54.346;10.210;2023-05-25T00:07:52;102008.94;;;10.98;100.00
68793;BME280;55778;54.346;10.210;2023-05-25T00:10:17;102004.59;;;10.96;100.00
68793;BME280;55778;54.346;10.210;2023-05-25T00:12:43;102007.72;;;11.02;100.00
68793;BME280;55778;54.346;10.210;2023-05-25T00:15:09;102002.25;;;11.02;100.00
68793;BME280;55778;54.346;10.210;2023-05-25T00:17:34;102010.28;;;10.93;100.00
68793;BME280;55778;54.346;10.210;2023-05-25T00:20:01;102016.03;;;10.77;100.00
68793;BME280;55778;54.346;10.210;2023-05-25T00:22:36;102020.41;;;10.80;100.00
68793;BME280;55778;54.346;10.210;2023-05-25T00:25:03;102014.97;;;10.80;100.00
68793;BME280;55778;54.346;10.210;2023-05-25T00:27:29;102016.84;;;10.67;100.00
68793;BME280;55778;54.346;10.210;2023-05-25T00:29:54;102017.59;;;10.69;100.00
68793;BME280;55778;54.346;10.210;2023-05-25T00:32:20;102014.97;;;10.56;100.00
68793;BME280;55778;54.346;10.210;2023-05-25T00:34:45;102016.25;;;10.51;100.00
68793;BME280;55778;54.346;10.210;2023-05-25T00:37:11;102006.72;;;10.45;100.00
68793;BME280;55778;54.346;10.210;2023-05-25T00:39:37;102012.28;;;10.44;100.00
68793;BME280;55778;54.346;10.210;2023-05-25T00:42:02;102013.50;;;10.40;100.00
68793;BME280;55778;54.346;10.210;2023-05-25T00:44:28;102017.38;;;10.48;100.00
68793;BME280;55778;54.346;10.210;2023-05-25T00:46:53;102018.63;;;10.32;100.00
68793;BME280;55778;54.346;10.210;2023-05-25T00:49:20;102015.13;;;10.30;100.00
68793;BME280;55778;54.346;10.210;2023-05-25T00:51:47;102012.66;;;10.27;100.00
68793;BME280;55778;54.346;10.210;2023-05-25T00:54:13;102012.25;;;10.20;100.00
68793;BME280;55778;54.346;10.210;2023-05-25T00:56:39;102016.19;;;10.16;100.00
68793;BME280;55778;54.346;10.210;2023-05-25T00:59:08;102018.34;;;10.24;100.00
68793;BME280;55778;54.346;10.210;2023-05-25T01:01:37;102017.16;;;10.15;100.00
68793;BME280;55778;54.346;10.210;2023-05-25T01:04:06;102025.75;;;10.09;100.00
68793;BME280;55778;54.346;10.210;2023-05-25T01:06:35;102021.09;;;10.11;100.00
68793;BME280;55778;54.346;10.210;2023-05-25T01:09:03;102019.56;;;10.07;100.00
68793;BME280;55778;54.346;10.210;2023-05-25T01:11:35;102020.66;;;9.92;100.00
68793;BME280;55778;54.346;10.210;2023-05-25T01:14:00;102013.81;;;9.86;100.00
68793;BME280;55778;54.346;10.210;2023-05-25T01:16:27;102013.69;;;9.88;100.00
68793;BME280;55778;54.346;10.210;2023-05-25T01:18:52;102011.75;;;9.77;100.00
68793;BME280;55778;54.346;10.210;2023-05-25T01:21:26;102022.09;;;9.72;100.00
68793;BME280;55778;54.346;10.210;2023-05-25T01:24:05;102023.38;;;9.79;100.00
68793;BME280;55778;54.346;10.210;2023-05-25T01:26:46;102031.47;;;9.68;100.00
68793;BME280;55778;54.346;10.210;2023-05-25T01:29:13;102036.34;;;9.63;100.00
68793;BME280;55778;54.346;10.210;2023-05-25T01:31:40;102038.97;;;9.52;100.00
68793;BME280;55778;54.346;10.210;2023-05-25T01:34:06;102031.88;;;9.50;100.00
68793;BME280;55778;54.346;10.210;2023-05-25T01:36:31;102026.53;;;9.48;100.00
68793;BME280;55778;54.346;10.210;2023-05-25T01:38:57;102025.44;;;9.38;100.00
68793;BME280;55778;54.346;10.210;2023-05-25T01:41:23;102036.69;;;9.46;100.00
68793;BME280;55778;54.346;10.210;2023-05-25T01:43:48;102040.47;;;9.31;100.00
68793;BME280;55778;54.346;10.210;2023-05-25T01:46:44;102037.41;;;9.23;100.00
68793;BME280;55778;54.346;10.210;2023-05-25T01:49:27;102045.75;;;9.20;100.00
68793;BME280;55778;54.346;10.210;2023-05-25T01:52:46;102048.94;;;9.27;100.00
68793;BME280;55778;54.346;10.210;2023-05-25T01:54:46;102059.88;;;9.13;100.00
68793;BME280;55778;54.346;10.210;2023-05-25T01:57:14;102061.75;;;9.12;100.00
68793;BME280;55778;54.346;10.210;2023-05-25T01:59:43;102066.09;;;9.15;100.00
68793;BME280;55778;54.346;10.210;2023-05-25T02:02:12;102063.34;;;9.02;100.00
68793;BME280;55778;54.346;10.210;2023-05-25T02:04:39;102057.16;;;9.00;100.00
68793;BME280;55778;54.346;10.210;2023-05-25T02:07:05;102055.06;;;9.04;100.00
68793;BME280;55778;54.346;10.210;2023-05-25T02:09:30;102061.13;;;8.95;100.00
68793;BME280;55778;54.346;10.210;2023-05-25T02:11:56;102060.91;;;8.85;100.00
68793;BME280;55778;54.346;10.210;2023-05-25T02:14:21;102061.34;;;8.92;100.00
68793;BME280;55778;54.346;10.210;2023-05-25T02:16:47;102065.56;;;8.83;100.00
68793;BME280;55778;54.346;10.210;2023-05-25T02:19:12;102062.50;;;8.75;100.00
68793;BME280;55778;54.346;10.210;2023-05-25T02:21:40;102067.38;;;8.70;100.00
68793;BME280;55778;54.346;10.210;2023-05-25T02:24:05;102054.75;;;8.69;100.00
68793;BME280;55778;54.346;10.210;2023-05-25T02:26:34;102062.03;;;8.69;100.00
68793;BME280;55778;54.346;10.210;2023-05-25T02:28:59;102052.03;;;8.69;100.00
68793;BME280;55778;54.346;10.210;2023-05-25T02:31:26;102055.28;;;8.62;100.00
68793;BME280;55778;54.346;10.210;2023-05-25T02:33:52;102061.09;;;8.56;100.00
68793;BME280;55778;54.346;10.210;2023-05-25T02:36:17;102062.53;;;8.61;100.00
68793;BME280;55778;54.346;10.210;2023-05-25T02:38:43;102071.88;;;8.57;100.00
68793;BME280;55778;54.346;10.210;2023-05-25T02:41:08;102067.59;;;8.53;100.00
68793;BME280;55778;54.346;10.210;2023-05-25T02:43:33;102065.34;;;8.60;100.00
68793;BME280;55778;54.346;10.210;2023-05-25T02:45:59;102069.47;;;8.53;100.00
68793;BME280;55778;54.346;10.210;2023-05-25T02:48:24;102064.13;;;8.51;100.00
68793;BME280;55778;54.346;10.210;2023-05-25T02:50:50;102070.06;;;8.44;100.00
68793;BME280;55778;54.346;10.210;2023-05-25T02:53:15;102071.50;;;8.49;100.00
68793;BME280;55778;54.346;10.210;2023-05-25T02:55:41;102073.06;;;8.39;100.00
68793;BME280;55778;54.346;10.210;2023-05-25T02:58:07;102073.97;;;8.40;100.00
68793;BME280;55778;54.346;10.210;2023-05-25T03:00:33;102070.16;;;8.42;100.00
68793;BME280;55778;54.346;10.210;2023-05-25T03:02:58;102079.50;;;8.38;100.00
68793;BME280;55778;54.346;10.210;2023-05-25T03:05:23;102082.50;;;8.34;100.00
68793;BME280;55778;54.346;10.210;2023-05-25T03:07:49;102083.94;;;8.39;100.00
68793;BME280;55778;54.346;10.210;2023-05-25T03:10:14;102084.13;;;8.36;100.00
68793;BME280;55778;54.346;10.210;2023-05-25T03:12:40;102083.47;;;8.33;100.00
68793;BME280;55778;54.346;10.210;2023-05-25T03:15:05;102084.84;;;8.26;100.00
68793;BME280;55778;54.346;10.210;2023-05-25T03:17:31;102091.16;;;8.26;100.00
68793;BME280;55778;54.346;10.210;2023-05-25T03:19:56;102086.38;;;8.30;100.00
68793;BME280;55778;54.346;10.210;2023-05-25T03:22:21;102091.78;;;8.30;100.00
68793;BME280;55778;54.346;10.210;2023-05-25T03:24:47;102088.34;;;8.28;100.00
68793;BME280;55778;54.346;10.210;2023-05-25T03:27:13;102095.69;;;8.26;100.00
68793;BME280;55778;54.346;10.210;2023-05-25T03:29:38;102096.38;;;8.29;100.00
68793;BME280;55778;54.346;10.210;2023-05-25T03:32:04;102092.97;;;8.26;100.00
68793;BME280;55778;54.346;10.210;2023-05-25T03:34:30;102098.13;;;8.30;100.00
68793;BME280;55778;54.346;10.210;2023-05-25T03:36:58;102090.84;;;8.31;100.00
68793;BME280;55778;54.346;10.210;2023-05-25T03:39:24;102098.31;;;8.27;100.00
68793;BME280;55778;54.346;10.210;2023-05-25T03:41:50;102098.91;;;8.32;100.00
68793;BME280;55778;54.346;10.210;2023-05-25T03:44:15;102094.72;;;8.27;100.00
68793;BME280;55778;54.346;10.210;2023-05-25T03:46:40;102087.06;;;8.33;100.00
68793;BME280;55778;54.346;10.210;2023-05-25T03:49:06;102090.75;;;8.32;100.00
68793;BME280;55778;54.346;10.210;2023-05-25T03:51:31;102090.94;;;8.29;100.00
68793;BME280;55778;54.346;10.210;2023-05-25T03:53:57;102094.41;;;8.31;100.00
68793;BME280;55778;54.346;10.210;2023-05-25T03:56:22;102095.31;;;8.32;100.00
68793;BME280;55778;54.346;10.210;2023-05-25T03:58:48;102096.00;;;8.35;100.00
68793;BME280;55778;54.346;10.210;2023-05-25T04:01:13;102101.03;;;8.41;100.00
68793;BME280;55778;54.346;10.210;2023-05-25T04:03:40;102104.59;;;8.42;100.00
68793;BME280;55778;54.346;10.210;2023-05-25T04:06:06;102102.56;;;8.45;100.00
68793;BME280;55778;54.346;10.210;2023-05-25T04:08:31;102107.00;;;8.46;100.00
68793;BME280;55778;54.346;10.210;2023-05-25T04:10:58;102111.06;;;8.53;100.00
68793;BME280;55778;54.346;10.210;2023-05-25T04:13:23;102105.22;;;8.59;100.00
68793;BME280;55778;54.346;10.210;2023-05-25T04:15:49;102096.13;;;8.60;100.00
68793;BME280;55778;54.346;10.210;2023-05-25T04:18:15;102098.53;;;8.65;100.00
68793;BME280;55778;54.346;10.210;2023-05-25T04:20:40;102105.72;;;8.66;100.00
68793;BME280;55778;54.346;10.210;2023-05-25T04:23:05;102111.16;;;8.66;100.00
68793;BME280;55778;54.346;10.210;2023-05-25T04:25:31;102109.97;;;8.70;100.00
68793;BME280;55778;54.346;10.210;2023-05-25T04:27:56;102107.91;;;8.73;100.00
68793;BME280;55778;54.346;10.210;2023-05-25T04:30:22;102114.06;;;8.89;100.00
68793;BME280;55778;54.346;10.210;2023-05-25T04:32:47;102107.00;;;8.87;100.00
68793;BME280;55778;54.346;10.210;2023-05-25T04:35:13;102105.34;;;8.84;100.00
68793;BME280;55778;54.346;10.210;2023-05-25T04:37:39;102104.31;;;8.99;100.00
68793;BME280;55778;54.346;10.210;2023-05-25T04:40:06;102110.34;;;9.04;100.00
68793;BME280;55778;54.346;10.210;2023-05-25T04:42:36;102108.59;;;9.03;100.00
68793;BME280;55778;54.346;10.210;2023-05-25T04:45:03;102112.66;;;9.10;100.00
68793;BME280;55778;54.346;10.210;2023-05-25T04:47:28;102108.00;;;9.12;100.00
68793;BME280;55778;54.346;10.210;2023-05-25T04:49:55;102110.91;;;9.09;100.00
68793;BME280;55778;54.346;10.210;2023-05-25T04:52:20;102115.59;;;9.20;100.00
68793;BME280;55778;54.346;10.210;2023-05-25T04:54:45;102115.69;;;9.18;100.00
68793;BME280;55778;54.346;10.210;2023-05-25T04:57:11;102113.56;;;9.23;100.00
68793;BME280;55778;54.346;10.210;2023-05-25T04:59:37;102121.59;;;9.25;100.00
68793;BME280;55778;54.346;10.210;2023-05-25T05:02:02;102111.09;;;9.33;100.00
68793;BME280;55778;54.346;10.210;2023-05-25T05:04:27;102116.13;;;9.39;100.00
68793;BME280;55778;54.346;10.210;2023-05-25T05:06:53;102109.94;;;9.49;100.00
68793;BME280;55778;54.346;10.210;2023-05-25T05:09:19;102108.38;;;9.45;100.00
68793;BME280;55778;54.346;10.210;2023-05-25T05:11:44;102117.75;;;9.54;100.00
68793;BME280;55778;54.346;10.210;2023-05-25T05:14:10;102115.81;;;9.56;100.00
68793;BME280;55778;54.346;10.210;2023-05-25T05:16:35;102118.78;;;9.65;100.00
68793;BME280;55778;54.346;10.210;2023-05-25T05:19:01;102116.69;;;9.69;100.00
68793;BME280;55778;54.346;10.210;2023-05-25T05:21:27;102117.13;;;9.75;100.00
68793;BME280;55778;54.346;10.210;2023-05-25T05:23:52;102111.91;;;9.72;100.00
68793;BME280;55778;54.346;10.210;2023-05-25T05:26:18;102114.63;;;9.72;100.00
68793;BME280;55778;54.346;10.210;2023-05-25T05:28:43;102111.25;;;9.81;100.00
68793;BME280;55778;54.346;10.210;2023-05-25T05:31:09;102118.34;;;9.84;100.00
68793;BME280;55778;54.346;10.210;2023-05-25T05:33:34;102113.09;;;9.81;100.00
68793;BME280;55778;54.346;10.210;2023-05-25T05:35:59;102116.53;;;10.09;100.00
68793;BME280;55778;54.346;10.210;2023-05-25T05:38:26;102115.75;;;10.20;100.00
68793;BME280;55778;54.346;10.210;2023-05-25T05:40:52;102116.06;;;10.28;100.00
68793;BME280;55778;54.346;10.210;2023-05-25T05:43:17;102122.28;;;10.43;100.00
68793;BME280;55778;54.346;10.210;2023-05-25T05:45:43;102117.25;;;10.24;99.84
68793;BME280;55778;54.346;10.210;2023-05-25T05:48:08;102120.97;;;10.23;99.94
68793;BME280;55778;54.346;10.210;2023-05-25T05:50:37;102129.03;;;10.25;99.95
68793;BME280;55778;54.346;10.210;2023-05-25T05:53:04;102133.28;;;10.29;99.09
68793;BME280;55778;54.346;10.210;2023-05-25T05:55:30;102134.47;;;10.37;100.00
68793;BME280;55778;54.346;10.210;2023-05-25T05:57:55;102128.69;;;10.42;98.83
68793;BME280;55778;54.346;10.210;2023-05-25T06:00:21;102132.94;;;10.46;97.49
68793;BME280;55778;54.346;10.210;2023-05-25T06:02:47;102123.00;;;10.45;96.50
68793;BME280;55778;54.346;10.210;2023-05-25T06:05:12;102134.72;;;10.70;95.63
68793;BME280;55778;54.346;10.210;2023-05-25T06:07:38;102135.63;;;10.71;94.80
68793;BME280;55778;54.346;10.210;2023-05-25T06:10:04;102130.97;;;10.84;95.51
68793;BME280;55778;54.346;10.210;2023-05-25T06:12:30;102133.00;;;10.69;94.23
68793;BME280;55778;54.346;10.210;2023-05-25T06:14:55;102132.78;;;10.72;93.98
68793;BME280;55778;54.346;10.210;2023-05-25T06:17:22;102140.69;;;10.39;94.60
68793;BME280;55778;54.346;10.210;2023-05-25T06:19:47;102138.16;;;10.49;94.36
68793;BME280;55778;54.346;10.210;2023-05-25T06:22:14;102144.63;;;10.35;95.39
68793;BME280;55778;54.346;10.210;2023-05-25T06:24:39;102146.75;;;10.55;94.60
68793;BME280;55778;54.346;10.210;2023-05-25T06:27:05;102133.69;;;10.48;94.30
68793;BME280;55778;54.346;10.210;2023-05-25T06:29:30;102147.97;;;10.39;94.62
68793;BME280;55778;54.346;10.210;2023-05-25T06:31:55;102149.41;;;10.44;95.17
68793;BME280;55778;54.346;10.210;2023-05-25T06:34:21;102146.75;;;10.55;94.56
68793;BME280;55778;54.346;10.210;2023-05-25T06:36:46;102143.13;;;10.67;93.86
68793;BME280;55778;54.346;10.210;2023-05-25T06:39:12;102142.28;;;10.54;92.86
68793;BME280;55778;54.346;10.210;2023-05-25T06:41:37;102148.25;;;10.72;92.28
68793;BME280;55778;54.346;10.210;2023-05-25T06:44:04;102159.38;;;10.69;92.65
68793;BME280;55778;54.346;10.210;2023-05-25T06:46:30;102151.28;;;10.80;92.52
68793;BME280;55778;54.346;10.210;2023-05-25T06:48:58;102150.38;;;10.92;92.46
68793;BME280;55778;54.346;10.210;2023-05-25T06:51:24;102155.44;;;10.73;91.46
68793;BME280;55778;54.346;10.210;2023-05-25T06:53:51;102153.97;;;10.92;91.79
68793;BME280;55778;54.346;10.210;2023-05-25T06:56:17;102162.78;;;10.60;90.85
68793;BME280;55778;54.346;10.210;2023-05-25T06:58:42;102153.75;;;10.59;91.38
68793;BME280;55778;54.346;10.210;2023-05-25T07:01:07;102158.38;;;10.70;90.21
68793;BME280;55778;54.346;10.210;2023-05-25T07:03:33;102161.69;;;10.62;90.40
68793;BME280;55778;54.346;10.210;2023-05-25T07:05:58;102160.03;;;10.60;89.98
68793;BME280;55778;54.346;10.210;2023-05-25T07:08:23;102165.78;;;10.80;91.51
68793;BME280;55778;54.346;10.210;2023-05-25T07:10:49;102164.03;;;11.15;89.61
68793;BME280;55778;54.346;10.210;2023-05-25T07:13:14;102172.69;;;11.33;88.85
68793;BME280;55778;54.346;10.210;2023-05-25T07:15:40;102173.25;;;11.25;87.34
68793;BME280;55778;54.346;10.210;2023-05-25T07:18:05;102167.50;;;11.41;86.26
68793;BME280;55778;54.346;10.210;2023-05-25T07:20:30;102176.44;;;11.19;87.02
68793;BME280;55778;54.346;10.210;2023-05-25T07:22:58;102175.31;;;11.34;86.23
68793;BME280;55778;54.346;10.210;2023-05-25T07:25:23;102189.28;;;11.30;86.54
68793;BME280;55778;54.346;10.210;2023-05-25T07:27:49;102187.84;;;11.37;86.96
68793;BME280;55778;54.346;10.210;2023-05-25T07:30:15;102185.53;;;11.43;84.74
68793;BME280;55778;54.346;10.210;2023-05-25T07:32:40;102178.59;;;11.03;86.78
68793;BME280;55778;54.346;10.210;2023-05-25T07:35:06;102185.53;;;11.20;86.44
68793;BME280;55778;54.346;10.210;2023-05-25T07:37:32;102193.28;;;11.37;85.54
68793;BME280;55778;54.346;10.210;2023-05-25T07:39:57;102178.22;;;11.67;83.90
68793;BME280;55778;54.346;10.210;2023-05-25T07:42:23;102189.69;;;11.83;83.43
68793;BME280;55778;54.346;10.210;2023-05-25T07:44:48;102193.50;;;11.81;84.92
68793;BME280;55778;54.346;10.210;2023-05-25T07:47:13;102193.72;;;11.67;84.92
68793;BME280;55778;54.346;10.210;2023-05-25T07:49:39;102192.13;;;11.75;84.40
68793;BME280;55778;54.346;10.210;2023-05-25T07:52:04;102208.13;;;11.69;84.66
68793;BME280;55778;54.346;10.210;2023-05-25T07:54:30;102190.00;;;11.68;85.40
68793;BME280;55778;54.346;10.210;2023-05-25T07:56:56;102197.00;;;12.18;83.00
68793;BME280;55778;54.346;10.210;2023-05-25T07:59:21;102183.59;;;12.48;82.89
68793;BME280;55778;54.346;10.210;2023-05-25T08:01:47;102192.44;;;12.62;80.23
68793;BME280;55778;54.346;10.210;2023-05-25T08:04:12;102200.53;;;12.64;78.75
68793;BME280;55778;54.346;10.210;2023-05-25T08:06:38;102192.56;;;12.83;77.29
68793;BME280;55778;54.346;10.210;2023-05-25T08:09:04;102194.66;;;12.46;79.57
68793;BME280;55778;54.346;10.210;2023-05-25T08:11:30;102207.91;;;12.29;80.04
68793;BME280;55778;54.346;10.210;2023-05-25T08:13:55;102212.91;;;12.35;81.21
68793;BME280;55778;54.346;10.210;2023-05-25T08:16:21;102206.34;;;12.59;80.82
68793;BME280;55778;54.346;10.210;2023-05-25T08:18:46;102203.34;;;12.95;78.43
68793;BME280;55778;54.346;10.210;2023-05-25T08:21:12;102215.44;;;12.82;78.93
68793;BME280;55778;54.346;10.210;2023-05-25T08:23:39;102218.78;;;12.85;78.46
68793;BME280;55778;54.346;10.210;2023-05-25T08:26:09;102222.03;;;13.12;79.23
68793;BME280;55778;54.346;10.210;2023-05-25T08:28:38;102219.00;;;13.37;76.63
68793;BME280;55778;54.346;10.210;2023-05-25T08:31:03;102217.38;;;13.35;76.24
68793;BME280;55778;54.346;10.210;2023-05-25T08:33:29;102223.69;;;13.46;74.31
68793;BME280;55778;54.346;10.210;2023-05-25T08:35:55;102226.75;;;13.95;74.18
68793;BME280;55778;54.346;10.210;2023-05-25T08:38:21;102223.97;;;14.78;70.95
68793;BME280;55778;54.346;10.210;2023-05-25T08:41:02;102213.03;;;14.57;68.79
68793;BME280;55778;54.346;10.210;2023-05-25T08:43:28;102224.13;;;13.62;71.54
68793;BME280;55778;54.346;10.210;2023-05-25T08:46:05;102231.09;;;14.19;70.75
68793;BME280;55778;54.346;10.210;2023-05-25T08:48:35;102236.31;;;14.22;69.68
68793;BME280;55778;54.346;10.210;2023-05-25T08:51:09;102231.69;;;13.81;71.52
68793;BME280;55778;54.346;10.210;2023-05-25T08:53:37;102237.47;;;13.87;72.91
68793;BME280;55778;54.346;10.210;2023-05-25T08:56:24;102232.31;;;13.73;71.13
68793;BME280;55778;54.346;10.210;2023-05-25T09:02:20;102233.81;;;14.80;68.58
68793;BME280;55778;54.346;10.210;2023-05-25T09:04:45;102227.25;;;14.72;68.77
68793;BME280;55778;54.346;10.210;2023-05-25T09:07:11;102240.00;;;15.03;67.11
68793;BME280;55778;54.346;10.210;2023-05-25T09:09:37;102232.94;;;15.19;66.21
68793;BME280;55778;54.346;10.210;2023-05-25T09:12:04;102237.44;;;15.79;65.77
68793;BME280;55778;54.346;10.210;2023-05-25T09:14:31;102236.28;;;16.20;63.00
68793;BME280;55778;54.346;10.210;2023-05-25T09:16:57;102245.16;;;15.36;62.92
68793;BME280;55778;54.346;10.210;2023-05-25T09:19:23;102235.00;;;15.66;62.12
68793;BME280;55778;54.346;10.210;2023-05-25T09:21:48;102245.09;;;16.23;60.23
68793;BME280;55778;54.346;10.210;2023-05-25T09:24:15;102235.41;;;16.19;60.29
68793;BME280;55778;54.346;10.210;2023-05-25T09:26:40;102241.91;;;15.80;61.17
68793;BME280;55778;54.346;10.210;2023-05-25T09:29:08;102239.03;;;15.72;63.38
68793;BME280;55778;54.346;10.210;2023-05-25T09:31:33;102239.13;;;16.66;62.82
68793;BME280;55778;54.346;10.210;2023-05-25T09:33:59;102233.94;;;16.99;61.96
68793;BME280;55778;54.346;10.210;2023-05-25T09:36:25;102244.53;;;16.39;59.70
68793;BME280;55778;54.346;10.210;2023-05-25T09:38:54;102247.34;;;16.75;61.10
68793;BME280;55778;54.346;10.210;2023-05-25T09:41:20;102249.78;;;16.88;60.43
68793;BME280;55778;54.346;10.210;2023-05-25T09:43:46;102246.28;;;16.49;59.30
68793;BME280;55778;54.346;10.210;2023-05-25T09:46:12;102242.22;;;16.90;58.92
68793;BME280;55778;54.346;10.210;2023-05-25T09:48:38;102245.47;;;17.39;60.22
68793;BME280;55778;54.346;10.210;2023-05-25T09:51:06;102236.78;;;17.44;58.25
68793;BME280;55778;54.346;10.210;2023-05-25T09:53:32;102234.94;;;16.62;58.09
68793;BME280;55778;54.346;10.210;2023-05-25T09:55:59;102244.81;;;16.55;58.88
68793;BME280;55778;54.346;10.210;2023-05-25T09:58:25;102246.50;;;17.38;58.20
68793;BME280;55778;54.346;10.210;2023-05-25T10:00:54;102246.13;;;17.60;58.05
68793;BME280;55778;54.346;10.210;2023-05-25T10:03:19;102250.25;;;17.37;57.26
68793;BME280;55778;54.346;10.210;2023-05-25T10:05:46;102248.81;;;16.79;57.03
68793;BME280;55778;54.346;10.210;2023-05-25T10:08:12;102247.91;;;17.52;56.62
68793;BME280;55778;54.346;10.210;2023-05-25T10:10:39;102252.38;;;17.80;54.93
68793;BME280;55778;54.346;10.210;2023-05-25T10:13:07;102254.03;;;17.46;54.39
68793;BME280;55778;54.346;10.210;2023-05-25T10:15:35;102259.13;;;18.21;53.89
68793;BME280;55778;54.346;10.210;2023-05-25T10:18:02;102252.50;;;18.74;54.30
68793;BME280;55778;54.346;10.210;2023-05-25T10:20:28;102252.75;;;18.03;54.51
68793;BME280;55778;54.346;10.210;2023-05-25T10:23:00;102253.97;;;18.86;50.88
68793;BME280;55778;54.346;10.210;2023-05-25T10:25:35;102256.16;;;18.75;51.60
68793;BME280;55778;54.346;10.210;2023-05-25T10:28:06;102255.81;;;19.95;49.01
68793;BME280;55778;54.346;10.210;2023-05-25T10:30:32;102255.34;;;19.16;50.30
68793;BME280;55778;54.346;10.210;2023-05-25T10:33:01;102261.88;;;18.56;50.17
68793;BME280;55778;54.346;10.210;2023-05-25T10:35:27;102258.19;;;18.47;52.27
68793;BME280;55778;54.346;10.210;2023-05-25T10:37:53;102248.69;;;18.93;51.39
68793;BME280;55778;54.346;10.210;2023-05-25T10:40:22;102262.44;;;18.42;51.29
68793;BME280;55778;54.346;10.210;2023-05-25T10:42:49;102257.72;;;18.77;50.68
68793;BME280;55778;54.346;10.210;2023-05-25T10:45:15;102251.44;;;19.68;50.18
68793;BME280;55778;54.346;10.210;2023-05-25T10:47:42;102258.94;;;19.34;52.72
68793;BME280;55778;54.346;10.210;2023-05-25T10:50:22;102260.06;;;18.90;50.91
68793;BME280;55778;54.346;10.210;2023-05-25T10:52:58;102250.59;;;19.83;49.66
68793;BME280;55778;54.346;10.210;2023-05-25T10:55:26;102258.75;;;19.93;50.42
68793;BME280;55778;54.346;10.210;2023-05-25T10:58:12;102264.72;;;20.46;50.10
68793;BME280;55778;54.346;10.210;2023-05-25T11:00:38;102261.69;;;19.34;50.51
68793;BME280;55778;54.346;10.210;2023-05-25T11:03:04;102264.06;;;19.62;51.09
68793;BME280;55778;54.346;10.210;2023-05-25T11:05:35;102253.13;;;20.51;48.87
68793;BME280;55778;54.346;10.210;2023-05-25T11:08:09;102262.25;;;19.95;50.01
68793;BME280;55778;54.346;10.210;2023-05-25T11:16:19;102274.19;;;18.87;53.64
68793;BME280;55778;54.346;10.210;2023-05-25T11:18:55;102266.44;;;18.90;53.42
68793;BME280;55778;54.346;10.210;2023-05-25T11:26:19;102260.88;;;19.49;52.70
68793;BME280;55778;54.346;10.210;2023-05-25T11:28:47;102249.41;;;19.94;48.92
68793;BME280;55778;54.346;10.210;2023-05-25T11:31:12;102257.66;;;18.95;51.00
68793;BME280;55778;54.346;10.210;2023-05-25T11:33:38;102250.44;;;18.51;52.67
68793;BME280;55778;54.346;10.210;2023-05-25T11:36:05;102247.16;;;18.73;52.02
68793;BME280;55778;54.346;10.210;2023-05-25T11:38:32;102245.56;;;18.45;53.09
68793;BME280;55778;54.346;10.210;2023-05-25T11:40:57;102246.59;;;18.95;51.34
68793;BME280;55778;54.346;10.210;2023-05-25T11:43:24;102237.31;;;19.79;48.61
68793;BME280;55778;54.346;10.210;2023-05-25T11:45:56;102234.22;;;19.32;49.27
68793;BME280;55778;54.346;10.210;2023-05-25T11:48:21;102227.63;;;20.79;45.46
68793;BME280;55778;54.346;10.210;2023-05-25T11:50:47;102231.94;;;20.82;46.68
68793;BME280;55778;54.346;10.210;2023-05-25T11:53:12;102230.22;;;20.89;45.87
68793;BME280;55778;54.346;10.210;2023-05-25T11:55:39;102235.34;;;19.22;47.70
68793;BME280;55778;54.346;10.210;2023-05-25T11:58:06;102236.41;;;19.62;47.65
68793;BME280;55778;54.346;10.210;2023-05-25T12:00:32;102243.50;;;19.65;46.31
68793;BME280;55778;54.346;10.210;2023-05-25T12:02:57;102232.16;;;20.72;45.12
68793;BME280;55778;54.346;10.210;2023-05-25T12:05:23;102233.88;;;20.97;44.05
68793;BME280;55778;54.346;10.210;2023-05-25T12:07:48;102227.72;;;21.18;43.91
68793;BME280;55778;54.346;10.210;2023-05-25T12:10:15;102229.31;;;21.12;43.75
68793;BME280;55778;54.346;10.210;2023-05-25T12:12:50;102223.25;;;21.01;43.22
68793;BME280;55778;54.346;10.210;2023-05-25T12:15:25;102224.34;;;22.00;40.35
68793;BME280;55778;54.346;10.210;2023-05-25T12:17:52;102224.97;;;21.48;40.96
68793;BME280;55778;54.346;10.210;2023-05-25T12:20:18;102224.31;;;21.46;39.91
68793;BME280;55778;54.346;10.210;2023-05-25T12:22:45;102232.78;;;22.29;39.39
68793;BME280;55778;54.346;10.210;2023-05-25T12:25:12;102222.53;;;21.23;40.33
68793;BME280;55778;54.346;10.210;2023-05-25T12:27:38;102219.72;;;20.60;41.39
68793;BME280;55778;54.346;10.210;2023-05-25T12:30:06;102229.91;;;20.12;44.18
68793;BME280;55778;54.346;10.210;2023-05-25T12:32:32;102214.78;;;21.02;40.59
68793;BME280;55778;54.346;10.210;2023-05-25T12:35:05;102219.00;;;21.29;41.36
68793;BME280;55778;54.346;10.210;2023-05-25T12:37:30;102218.03;;;21.52;39.75
68793;BME280;55778;54.346;10.210;2023-05-25T12:39:56;102210.19;;;22.09;38.08
68793;BME280;55778;54.346;10.210;2023-05-25T12:42:22;102206.34;;;21.34;38.75
68793;BME280;55778;54.346;10.210;2023-05-25T12:44:54;102213.28;;;20.68;40.58
68793;BME280;55778;54.346;10.210;2023-05-25T12:47:23;102218.78;;;21.77;38.00
68793;BME280;55778;54.346;10.210;2023-05-25T12:49:50;102203.63;;;20.24;41.82